createdAt,value
2022-10-19T00:02:25.816Z,99237.28
2022-10-19T00:04:52.429Z,99232.72
2022-10-19T00:07:19.049Z,99239.31
2022-10-19T00:09:45.929Z,99222.06
2022-10-19T00:12:13.369Z,99207.25
2022-10-19T00:14:39.962Z,99225.00
2022-10-19T00:17:06.749Z,99228.72
2022-10-19T00:19:34.074Z,99203.44
2022-10-19T00:22:00.664Z,99209.72
2022-10-19T00:24:27.382Z,99197.75
2022-10-19T00:26:53.993Z,99186.69
2022-10-19T00:29:20.634Z,99184.09
2022-10-19T00:31:52.088Z,99188.22
2022-10-19T00:34:19.195Z,99200.84
2022-10-19T00:36:46.606Z,99176.22
2022-10-19T00:39:15.414Z,99180.88
2022-10-19T00:41:42.689Z,99170.59
2022-10-19T00:44:12.271Z,99174.25
2022-10-19T00:46:41.528Z,99155.84
2022-10-19T00:49:12.965Z,99156.53
2022-10-19T00:51:46.038Z,99146.53
2022-10-19T00:54:13.199Z,99148.47
2022-10-19T00:56:41.423Z,99151.84
2022-10-19T00:59:08.981Z,99135.63
2022-10-19T01:01:35.814Z,99139.59
2022-10-19T01:04:03.386Z,99139.53
2022-10-19T01:06:30.282Z,99125.41
2022-10-19T01:08:56.985Z,99137.56
2022-10-19T01:11:48.704Z,99128.34
2022-10-19T01:14:33.597Z,99116.91
2022-10-19T01:17:00.183Z,99122.94
2022-10-19T01:19:40.249Z,99124.38
2022-10-19T01:22:23.421Z,99105.56
2022-10-19T01:25:21.797Z,99125.19
2022-10-19T01:28:11.718Z,99113.00
2022-10-19T01:31:36.877Z,99120.53
2022-10-19T01:34:05.126Z,99105.97
2022-10-19T01:36:46.859Z,99114.63
2022-10-19T01:39:19.236Z,99104.69
2022-10-19T01:41:54.447Z,99105.84
2022-10-19T01:44:31.890Z,99102.75
2022-10-19T01:47:03.117Z,99103.25
2022-10-19T01:49:34.764Z,99101.34
2022-10-19T01:52:04.428Z,99097.63
2022-10-19T01:54:35.412Z,99086.47
2022-10-19T01:57:03.169Z,99091.44
2022-10-19T01:59:30.573Z,99082.41
2022-10-19T02:01:57.625Z,99082.81
2022-10-19T02:04:25.658Z,99084.59
2022-10-19T02:06:53.488Z,99088.00
2022-10-19T02:09:20.410Z,99070.06
2022-10-19T02:11:56.119Z,99069.63
2022-10-19T02:14:27.830Z,99070.56
2022-10-19T02:17:10.526Z,99068.19
2022-10-19T02:19:37.572Z,99075.63
2022-10-19T02:22:04.541Z,99069.31
2022-10-19T02:24:31.354Z,99081.63
2022-10-19T02:26:58.373Z,99075.81
2022-10-19T02:29:24.974Z,99068.56
2022-10-19T02:31:51.589Z,99076.47
2022-10-19T02:34:18.292Z,99073.97
2022-10-19T02:36:45.068Z,99073.34
2022-10-19T02:39:11.742Z,99086.63
2022-10-19T02:41:47.161Z,99065.47
2022-10-19T02:44:23.963Z,99079.03
2022-10-19T02:46:55.667Z,99067.81
2022-10-19T02:49:22.590Z,99067.91
2022-10-19T02:52:00.738Z,99057.44
2022-10-19T02:54:27.617Z,99065.84
2022-10-19T02:56:54.852Z,99073.34
2022-10-19T02:59:21.534Z,99066.00
2022-10-19T03:01:48.189Z,99065.28
2022-10-19T03:04:14.966Z,99068.41
2022-10-19T03:06:41.714Z,99055.50
2022-10-19T03:09:08.793Z,99037.72
2022-10-19T03:11:35.462Z,99048.22
2022-10-19T03:14:02.203Z,99042.59
2022-10-19T03:16:28.812Z,99042.81
2022-10-19T03:18:55.426Z,99041.63
2022-10-19T03:21:22.052Z,99040.41
2022-10-19T03:23:48.682Z,99051.78
2022-10-19T03:26:16.498Z,99058.22
2022-10-19T03:28:43.384Z,99035.88
2022-10-19T03:31:10.210Z,99048.91
2022-10-19T03:33:36.795Z,99044.53
2022-10-19T03:36:34.057Z,99053.84
2022-10-19T03:39:03.673Z,99045.72
2022-10-19T03:41:32.911Z,99037.53
2022-10-19T03:46:27.034Z,99023.81
2022-10-19T03:48:54.133Z,99038.19
2022-10-19T03:51:25.939Z,99030.41
2022-10-19T03:54:13.458Z,99033.72
2022-10-19T03:56:40.142Z,99034.56
2022-10-19T03:59:07.454Z,99030.50
2022-10-19T04:01:39.714Z,99037.00
2022-10-19T04:04:10.059Z,99045.88
2022-10-19T04:06:38.565Z,99043.34
2022-10-19T04:09:06.605Z,99050.28
2022-10-19T04:11:34.842Z,99046.63
2022-10-19T04:14:02.351Z,99057.63
2022-10-19T04:16:30.349Z,99055.78
2022-10-19T04:18:57.155Z,99051.38
2022-10-19T04:21:26.169Z,99048.25
2022-10-19T04:23:56.950Z,99036.25
2022-10-19T04:26:23.773Z,99048.25
2022-10-19T04:28:50.529Z,99051.47
2022-10-19T04:31:17.306Z,99048.50
2022-10-19T04:33:44.122Z,99044.09
2022-10-19T04:36:11.947Z,99041.22
2022-10-19T04:38:39.107Z,99037.44
2022-10-19T04:41:11.269Z,99036.66
2022-10-19T04:43:38.328Z,99048.59
2022-10-19T04:46:10.972Z,99031.50
2022-10-19T04:48:38.774Z,99027.47
2022-10-19T04:51:06.280Z,99044.03
2022-10-19T04:53:33.726Z,99050.63
2022-10-19T04:56:00.877Z,99046.41
2022-10-19T04:58:27.559Z,99038.78
2022-10-19T05:00:54.200Z,99047.31
2022-10-19T05:03:20.873Z,99043.84
2022-10-19T05:05:47.567Z,99043.94
2022-10-19T05:08:14.295Z,99055.63
2022-10-19T05:10:44.258Z,99065.94
2022-10-19T05:13:14.233Z,99068.63
2022-10-19T05:15:40.855Z,99089.31
2022-10-19T05:18:07.572Z,99080.28
2022-10-19T05:20:34.244Z,99093.38
2022-10-19T05:23:06.138Z,99105.56
2022-10-19T05:25:34.070Z,99085.28
2022-10-19T05:28:00.743Z,99077.66
2022-10-19T05:30:27.354Z,99070.06
2022-10-19T05:32:54.059Z,99069.31
2022-10-19T05:35:22.618Z,99090.44
2022-10-19T05:37:54.744Z,99076.72
2022-10-19T05:40:21.480Z,99088.78
2022-10-19T05:42:48.191Z,99119.06
2022-10-19T05:45:15.033Z,99123.75
2022-10-19T05:47:41.598Z,99130.47
2022-10-19T05:50:08.681Z,99127.59
2022-10-19T05:52:35.284Z,99128.50
2022-10-19T05:55:01.945Z,99122.16
2022-10-19T05:57:28.647Z,99121.91
2022-10-19T05:59:58.386Z,99115.63
2022-10-19T06:02:27.931Z,99120.97
2022-10-19T06:04:54.527Z,99134.66
2022-10-19T06:07:21.122Z,99135.59
2022-10-19T06:09:48.094Z,99142.78
2022-10-19T06:12:16.219Z,99152.84
2022-10-19T06:14:43.229Z,99132.19
2022-10-19T06:17:09.915Z,99136.53
2022-10-19T06:19:36.841Z,99144.47
2022-10-19T06:22:03.529Z,99154.94
2022-10-19T06:24:30.312Z,99142.91
2022-10-19T06:26:57.014Z,99131.06
2022-10-19T06:29:23.774Z,99135.31
2022-10-19T06:31:50.580Z,99143.97
2022-10-19T06:34:17.321Z,99147.00
2022-10-19T06:36:44.095Z,99143.34
2022-10-19T06:39:13.447Z,99153.53
2022-10-19T06:41:40.179Z,99138.13
2022-10-19T06:44:06.812Z,99167.06
2022-10-19T06:46:33.989Z,99176.59
2022-10-19T06:49:01.876Z,99154.44
2022-10-19T06:51:29.842Z,99160.59
2022-10-19T06:53:57.102Z,99172.06
2022-10-19T06:56:24.944Z,99170.25
2022-10-19T06:58:51.867Z,99174.84
2022-10-19T07:01:18.620Z,99184.13
2022-10-19T07:03:45.406Z,99187.03
2022-10-19T07:06:13.335Z,99167.72
2022-10-19T07:08:42.072Z,99182.88
2022-10-19T07:11:11.516Z,99190.81
2022-10-19T07:13:38.819Z,99189.47
2022-10-19T07:16:08.539Z,99181.06
2022-10-19T07:18:36.026Z,99183.75
2022-10-19T07:21:05.193Z,99186.72
2022-10-19T07:23:33.475Z,99179.91
2022-10-19T07:26:07.145Z,99160.00
2022-10-19T07:28:34.482Z,99169.78
2022-10-19T07:31:08.918Z,99149.72
2022-10-19T07:33:35.809Z,99163.06
2022-10-19T07:36:04.415Z,99167.34
2022-10-19T07:38:32.035Z,99167.41
2022-10-19T07:41:10.346Z,99166.41
2022-10-19T07:43:36.977Z,99171.28
2022-10-19T07:46:17.615Z,99163.88
2022-10-19T07:48:44.553Z,99166.41
2022-10-19T07:51:12.607Z,99161.56
2022-10-19T07:53:39.753Z,99163.88
2022-10-19T07:56:09.244Z,99169.69
2022-10-19T07:58:36.708Z,99166.50
2022-10-19T08:01:14.893Z,99149.63
2022-10-19T08:06:28.760Z,99151.88
2022-10-19T08:08:55.936Z,99141.06
2022-10-19T08:11:25.464Z,99149.13
2022-10-19T08:13:52.647Z,99137.41
2022-10-19T08:16:28.150Z,99152.53
2022-10-19T08:19:00.293Z,99154.00
2022-10-19T08:21:27.975Z,99161.47
2022-10-19T08:23:54.994Z,99142.72
2022-10-19T08:26:22.074Z,99162.16
2022-10-19T08:28:48.942Z,99144.63
2022-10-19T08:31:18.312Z,99150.63
2022-10-19T08:33:45.263Z,99133.47
2022-10-19T08:36:13.553Z,99147.38
2022-10-19T08:38:41.442Z,99148.63
2022-10-19T08:41:26.437Z,99143.13
2022-10-19T08:43:58.595Z,99151.22
2022-10-19T08:46:33.763Z,99139.00
2022-10-19T08:49:00.701Z,99173.38
2022-10-19T08:51:28.445Z,99156.63
2022-10-19T08:53:57.914Z,99152.53
2022-10-19T08:56:50.895Z,99133.78
2022-10-19T08:59:30.877Z,99163.22
2022-10-19T09:02:12.526Z,99140.78
2022-10-19T09:04:47.968Z,99165.97
2022-10-19T09:07:17.493Z,99168.56
2022-10-19T09:09:52.115Z,99152.78
2022-10-19T09:12:24.689Z,99150.56
2022-10-19T09:14:59.208Z,99150.69
2022-10-19T09:17:26.068Z,99142.41
2022-10-19T09:19:53.030Z,99148.22
2022-10-19T09:22:25.123Z,99144.94
2022-10-19T09:24:53.314Z,99139.03
2022-10-19T09:27:40.170Z,99143.72
2022-10-19T09:30:16.002Z,99133.97
2022-10-19T09:32:42.849Z,99144.75
2022-10-19T09:35:29.898Z,99152.09
2022-10-19T09:37:57.028Z,99127.47
2022-10-19T09:40:29.279Z,99144.19
2022-10-19T09:42:59.445Z,99130.75
2022-10-19T09:45:34.165Z,99130.94
2022-10-19T09:48:12.763Z,99134.50
2022-10-19T09:50:43.433Z,99117.94
2022-10-19T09:53:20.626Z,99123.31
2022-10-19T09:55:51.384Z,99123.47
2022-10-19T09:58:20.268Z,99125.59
2022-10-19T10:00:52.375Z,99121.06
2022-10-19T10:03:40.547Z,99120.44
2022-10-19T10:06:17.610Z,99131.53
2022-10-19T10:08:47.673Z,99116.84
2022-10-19T10:11:25.897Z,99125.13
2022-10-19T10:13:54.767Z,99122.16
2022-10-19T10:16:23.118Z,99117.00
2022-10-19T10:18:58.639Z,99113.84
2022-10-19T10:21:28.867Z,99109.59
2022-10-19T10:24:11.897Z,99116.91
2022-10-19T10:26:46.466Z,99110.47
2022-10-19T10:29:29.165Z,99102.44
2022-10-19T10:32:06.213Z,99111.06
2022-10-19T10:34:45.669Z,99103.69
2022-10-19T10:37:43.774Z,99093.81
2022-10-19T10:40:28.456Z,99100.72
2022-10-19T10:42:58.250Z,99098.78
2022-10-19T10:45:34.606Z,99091.75
2022-10-19T10:48:15.561Z,99076.28
2022-10-19T10:50:42.198Z,99099.13
2022-10-19T10:53:31.500Z,99096.16
2022-10-19T10:55:58.280Z,99090.66
2022-10-19T10:58:47.683Z,99071.81
2022-10-19T11:01:24.538Z,99084.81
2022-10-19T11:03:56.113Z,99081.72
2022-10-19T11:06:26.069Z,99083.47
2022-10-19T11:09:04.860Z,99088.41
2022-10-19T11:11:37.189Z,99069.81
2022-10-19T11:14:22.639Z,99070.44
2022-10-19T11:16:50.625Z,99067.81
2022-10-19T11:19:35.357Z,99033.69
2022-10-19T11:22:17.006Z,99040.09
2022-10-19T11:25:02.448Z,99055.84
2022-10-19T11:28:08.071Z,99053.84
2022-10-19T11:30:42.500Z,99044.38
2022-10-19T11:33:20.186Z,99036.88
2022-10-19T11:36:33.424Z,99040.25
2022-10-19T11:39:18.668Z,99034.38
2022-10-19T11:42:00.560Z,99031.31
2022-10-19T11:44:51.616Z,99016.13
2022-10-19T11:47:43.205Z,99015.06
2022-10-19T11:50:25.112Z,99006.34
2022-10-19T11:53:16.734Z,99014.66
2022-10-19T11:56:11.824Z,98993.47
2022-10-19T11:58:38.433Z,98997.31
2022-10-19T12:01:20.986Z,99005.41
2022-10-19T12:04:15.070Z,98988.75
2022-10-19T12:06:56.271Z,98983.38
2022-10-19T12:09:28.739Z,98995.81
2022-10-19T12:12:15.961Z,98979.38
2022-10-19T12:14:44.234Z,98980.69
2022-10-19T12:17:15.458Z,98968.09
2022-10-19T12:19:48.225Z,98970.84
2022-10-19T12:22:22.779Z,98972.06
2022-10-19T12:24:53.297Z,98976.63
2022-10-19T12:27:29.195Z,98971.13
2022-10-19T12:29:58.938Z,98971.16
2022-10-19T12:32:27.444Z,98958.09
2022-10-19T12:35:04.642Z,98972.41
2022-10-19T12:37:41.848Z,98968.94
2022-10-19T12:40:23.495Z,98965.16
2022-10-19T12:42:57.309Z,98948.59
2022-10-19T12:45:37.022Z,98965.25
2022-10-19T12:48:12.676Z,98964.31
2022-10-19T12:50:48.452Z,98963.88
2022-10-19T12:53:49.164Z,98951.75
2022-10-19T12:56:19.990Z,98949.03
2022-10-19T12:58:47.603Z,98957.03
2022-10-19T13:01:23.881Z,98947.38
2022-10-19T13:03:54.538Z,98946.19
2022-10-19T13:06:24.210Z,98963.28
2022-10-19T13:08:53.604Z,98956.22
2022-10-19T13:11:20.754Z,98949.69
2022-10-19T13:14:06.526Z,98951.88
2022-10-19T13:16:56.770Z,98946.72
2022-10-19T13:19:23.754Z,98946.09
2022-10-19T13:22:03.382Z,98934.41
2022-10-19T13:24:35.879Z,98937.25
2022-10-19T13:27:02.468Z,98941.69
2022-10-19T13:29:40.915Z,98942.94
2022-10-19T13:32:37.200Z,98932.72
2022-10-19T13:35:23.096Z,98932.41
2022-10-19T13:38:12.172Z,98933.91
2022-10-19T13:40:56.012Z,98935.88
2022-10-19T13:43:29.581Z,98937.88
2022-10-19T13:46:01.997Z,98927.06
2022-10-19T13:48:34.861Z,98922.41
2022-10-19T13:51:27.101Z,98917.16
2022-10-19T13:54:20.159Z,98916.22
2022-10-19T13:57:34.446Z,98916.72
2022-10-19T14:00:03.803Z,98914.19
2022-10-19T14:03:02.183Z,98912.41
2022-10-19T14:05:52.710Z,98900.94
2022-10-19T14:08:38.101Z,98906.50
2022-10-19T14:11:16.230Z,98902.94
2022-10-19T14:13:43.523Z,98890.81
2022-10-19T14:16:20.932Z,98901.03
2022-10-19T14:18:57.408Z,98891.13
2022-10-19T14:21:32.771Z,98889.25
2022-10-19T14:23:59.955Z,98897.56
2022-10-19T14:26:31.114Z,98892.28
2022-10-19T14:28:59.123Z,98889.75
2022-10-19T14:31:31.958Z,98895.31
2022-10-19T14:34:02.352Z,98887.75
2022-10-19T14:36:35.308Z,98888.69
2022-10-19T14:39:02.008Z,98871.75
2022-10-19T14:41:28.660Z,98878.50
2022-10-19T14:43:56.587Z,98885.31
2022-10-19T14:46:34.404Z,98863.97
2022-10-19T14:49:03.338Z,98878.34
2022-10-19T14:51:40.500Z,98869.50
2022-10-19T14:54:32.240Z,98871.09
2022-10-19T14:57:02.105Z,98879.72
2022-10-19T14:59:38.484Z,98865.09
2022-10-19T15:02:22.666Z,98860.53
2022-10-19T15:04:49.971Z,98867.28
2022-10-19T15:07:30.231Z,98872.44
2022-10-19T15:09:59.157Z,98875.16
2022-10-19T15:12:28.969Z,98854.50
2022-10-19T15:14:56.266Z,98878.47
2022-10-19T15:17:28.415Z,98877.50
2022-10-19T15:19:56.259Z,98879.41
2022-10-19T15:22:28.104Z,98845.38
2022-10-19T15:25:06.649Z,98877.91
2022-10-19T15:27:34.568Z,98885.69
2022-10-19T15:30:29.702Z,98878.94
2022-10-19T15:33:10.688Z,98871.97
2022-10-19T15:35:39.081Z,98884.38
2022-10-19T15:38:26.062Z,98882.16
2022-10-19T15:41:00.739Z,98886.88
2022-10-19T15:43:30.358Z,98878.56
2022-10-19T15:46:04.442Z,98878.66
2022-10-19T15:48:52.317Z,98888.69
2022-10-19T15:51:24.774Z,98884.03
2022-10-19T15:53:59.395Z,98882.94
2022-10-19T15:56:27.719Z,98888.56
2022-10-19T15:58:59.011Z,98886.81
2022-10-19T16:01:28.274Z,98892.34
2022-10-19T16:03:55.251Z,98894.88
2022-10-19T16:06:25.448Z,98878.00
2022-10-19T16:08:54.160Z,98899.56
2022-10-19T16:11:22.984Z,98888.72
2022-10-19T16:13:49.647Z,98889.38
2022-10-19T16:16:25.033Z,98887.13
2022-10-19T16:18:52.388Z,98884.22
2022-10-19T16:21:26.210Z,98882.34
2022-10-19T16:23:52.980Z,98885.31
2022-10-19T16:26:19.741Z,98845.16
2022-10-19T16:28:48.677Z,98880.44
2022-10-19T16:31:15.814Z,98892.66
2022-10-19T16:33:42.454Z,98884.13
2022-10-19T16:36:09.404Z,98882.44
2022-10-19T16:38:36.777Z,98900.81
2022-10-19T16:41:06.161Z,98895.47
2022-10-19T16:43:33.025Z,98878.91
2022-10-19T16:45:59.841Z,98882.25
2022-10-19T16:48:27.207Z,98890.69
2022-10-19T16:51:28.820Z,98886.84
2022-10-19T16:53:57.386Z,98878.81
2022-10-19T16:56:25.806Z,98878.72
2022-10-19T16:59:03.135Z,98875.63
2022-10-19T17:01:30.709Z,98872.31
2022-10-19T17:03:57.865Z,98875.69
2022-10-19T17:06:25.252Z,98866.44
2022-10-19T17:09:29.868Z,98881.81
2022-10-19T17:11:39.703Z,98873.09
2022-10-19T17:14:08.782Z,98876.06
2022-10-19T17:16:36.499Z,98877.06
2022-10-19T17:19:04.837Z,98855.13
2022-10-19T17:21:33.876Z,98860.59
2022-10-19T17:24:02.550Z,98860.28
2022-10-19T17:26:30.421Z,98844.53
2022-10-19T17:28:57.481Z,98863.47
2022-10-19T17:31:24.183Z,98865.16
2022-10-19T17:33:51.068Z,98868.13
2022-10-19T17:36:25.282Z,98851.38
2022-10-19T17:38:56.616Z,98869.50
2022-10-19T17:41:23.782Z,98862.13
2022-10-19T17:43:54.224Z,98870.25
2022-10-19T17:46:23.023Z,98862.47
2022-10-19T17:48:49.819Z,98854.22
2022-10-19T17:51:19.530Z,98848.97
2022-10-19T17:53:47.927Z,98866.84
2022-10-19T17:56:19.628Z,98869.69
2022-10-19T17:58:46.440Z,98875.25
2022-10-19T18:01:14.410Z,98870.84
2022-10-19T18:03:41.186Z,98876.53
2022-10-19T18:06:13.612Z,98873.34
2022-10-19T18:08:45.172Z,98872.53
2022-10-19T18:11:14.362Z,98882.22
2022-10-19T18:13:41.599Z,98841.56
2022-10-19T18:16:11.088Z,98867.31
2022-10-19T18:18:39.878Z,98849.81
2022-10-19T18:21:10.407Z,98872.94
2022-10-19T18:23:38.120Z,98863.22
2022-10-19T18:26:07.373Z,98881.47
2022-10-19T18:28:34.534Z,98890.22
2022-10-19T18:31:13.265Z,98893.75
2022-10-19T18:33:40.426Z,98898.53
2022-10-19T18:36:08.872Z,98889.09
2022-10-19T18:38:35.587Z,98893.63
2022-10-19T18:41:03.890Z,98906.69
2022-10-19T18:43:30.692Z,98879.44
2022-10-19T18:45:59.157Z,98874.66
2022-10-19T18:48:27.551Z,98890.72
2022-10-19T18:50:54.790Z,98901.88
2022-10-19T18:53:22.050Z,98914.41
2022-10-19T18:56:05.887Z,98903.19
2022-10-19T18:58:33.810Z,98905.16
2022-10-19T19:01:13.660Z,98908.00
2022-10-19T19:03:42.502Z,98910.84
2022-10-19T19:06:14.749Z,98914.38
2022-10-19T19:08:41.706Z,98911.25
2022-10-19T19:11:14.153Z,98912.94
2022-10-19T19:13:41.381Z,98900.78
2022-10-19T19:16:09.444Z,98929.53
2022-10-19T19:18:36.181Z,98921.59
2022-10-19T19:21:04.215Z,98923.91
2022-10-19T19:23:31.142Z,98923.84
2022-10-19T19:25:57.835Z,98945.56
2022-10-19T19:28:24.701Z,98929.38
2022-10-19T19:30:51.316Z,98946.97
2022-10-19T19:33:17.993Z,98932.38
2022-10-19T19:35:45.908Z,98931.59
2022-10-19T19:38:13.649Z,98950.56
2022-10-19T19:40:45.186Z,98948.50
2022-10-19T19:43:13.481Z,98973.81
2022-10-19T19:45:41.200Z,98957.16
2022-10-19T19:48:09.034Z,98957.22
2022-10-19T19:50:37.521Z,98965.91
2022-10-19T19:53:04.963Z,98965.84
2022-10-19T19:55:36.783Z,98959.00
2022-10-19T19:58:05.630Z,98964.53
2022-10-19T20:00:32.348Z,98959.22
2022-10-19T20:02:59.822Z,98943.47
2022-10-19T20:05:27.188Z,98953.38
2022-10-19T20:07:53.890Z,98963.09
2022-10-19T20:10:20.567Z,98942.03
2022-10-19T20:12:47.755Z,98970.78
2022-10-19T20:15:16.561Z,98963.34
2022-10-19T20:17:43.517Z,98970.53
2022-10-19T20:20:11.610Z,98985.16
2022-10-19T20:22:38.434Z,98977.38
2022-10-19T20:25:05.526Z,98980.06
2022-10-19T20:27:35.588Z,98969.22
2022-10-19T20:30:02.540Z,98983.44
2022-10-19T20:32:29.583Z,98977.81
2022-10-19T20:34:56.201Z,98976.84
2022-10-19T20:37:23.620Z,98978.75
2022-10-19T20:39:50.348Z,98977.81
2022-10-19T20:42:18.291Z,98974.34
2022-10-19T20:44:45.163Z,98972.31
2022-10-19T20:47:12.118Z,98943.75
2022-10-19T20:49:38.753Z,98971.34
2022-10-19T20:52:05.408Z,98979.38
